createdAt,value
2023-03-07T00:49:30.846Z,2.63
2023-03-07T00:52:05.371Z,2.43
2023-03-07T00:54:35.037Z,2.41
2023-03-07T00:57:01.718Z,2.56
2023-03-07T00:59:41.929Z,2.33
2023-03-07T01:02:11.653Z,2.56
2023-03-07T01:04:43.865Z,2.15
2023-03-07T01:07:10.668Z,2.96
2023-03-07T01:09:37.580Z,2.60
2023-03-07T01:12:07.429Z,2.60
2023-03-07T01:15:12.133Z,3.04
2023-03-07T01:17:40.935Z,2.66
2023-03-07T01:20:08.477Z,2.30
2023-03-07T01:22:34.994Z,2.39
2023-03-07T01:25:13.362Z,2.18
2023-03-07T01:27:48.627Z,2.36
2023-03-07T01:30:18.322Z,2.55
2023-03-07T01:32:45.050Z,2.51
2023-03-07T01:35:11.980Z,3.11
2023-03-07T01:37:38.543Z,2.72
2023-03-07T01:40:05.701Z,2.28
2023-03-07T01:42:32.857Z,2.59
2023-03-07T01:45:36.010Z,3.17
2023-03-07T01:48:08.516Z,2.79
2023-03-07T01:50:35.530Z,2.63
2023-03-07T01:53:02.801Z,2.87
2023-03-07T01:55:34.472Z,3.24
2023-03-07T01:58:07.306Z,2.84
2023-03-07T02:00:49.996Z,2.08
2023-03-07T02:06:21.256Z,2.72
2023-03-07T02:08:50.008Z,3.01
2023-03-07T02:11:17.373Z,2.49
2023-03-07T02:13:44.103Z,2.92
2023-03-07T02:16:14.453Z,3.20
2023-03-07T02:18:45.293Z,3.03
2023-03-07T02:21:46.713Z,3.24
2023-03-07T02:24:25.541Z,3.19
2023-03-07T02:26:53.357Z,3.10
2023-03-07T02:29:20.293Z,2.87
2023-03-07T02:31:47.104Z,2.89
2023-03-07T02:34:31.328Z,2.82
2023-03-07T02:37:26.703Z,2.82
2023-03-07T02:39:54.813Z,2.76
2023-03-07T02:42:26.957Z,2.78
2023-03-07T02:44:59.651Z,2.83
2023-03-07T02:47:27.046Z,2.91
2023-03-07T02:49:53.789Z,2.89
2023-03-07T02:52:23.828Z,2.83
2023-03-07T02:54:50.286Z,2.81
2023-03-07T02:57:16.755Z,2.75
2023-03-07T02:59:43.187Z,2.69
2023-03-07T03:02:09.647Z,2.65
2023-03-07T03:04:36.210Z,2.68
2023-03-07T03:07:02.776Z,2.76
2023-03-07T03:09:29.454Z,2.94
2023-03-07T03:11:55.899Z,2.90
2023-03-07T03:14:22.309Z,2.98
2023-03-07T03:16:49.755Z,2.94
2023-03-07T03:19:16.199Z,2.97
2023-03-07T03:21:43.769Z,3.12
2023-03-07T03:24:11.119Z,2.82
2023-03-07T03:26:38.237Z,3.11
2023-03-07T03:29:05.889Z,3.22
2023-03-07T03:31:33.185Z,3.04
2023-03-07T03:33:59.746Z,3.23
2023-03-07T03:36:27.349Z,3.29
2023-03-07T03:38:55.686Z,3.23
2023-03-07T03:41:22.785Z,3.36
2023-03-07T03:43:49.268Z,3.26
2023-03-07T03:46:16.979Z,3.27
2023-03-07T03:48:44.354Z,3.30
2023-03-07T03:51:14.597Z,3.27
2023-03-07T03:53:41.018Z,3.12
2023-03-07T03:56:13.400Z,3.26
2023-03-07T03:58:40.617Z,3.24
2023-03-07T04:01:10.168Z,2.68
2023-03-07T04:03:42.467Z,3.09
2023-03-07T04:06:15.120Z,3.25
2023-03-07T04:08:42.025Z,3.24
2023-03-07T04:11:08.956Z,2.96
2023-03-07T04:13:35.827Z,3.00
2023-03-07T04:16:02.784Z,3.13
2023-03-07T04:18:29.513Z,3.07
2023-03-07T04:20:56.151Z,3.02
2023-03-07T04:23:24.280Z,3.07
2023-03-07T04:25:53.128Z,3.03
2023-03-07T04:28:19.746Z,3.06
2023-03-07T04:30:47.074Z,2.91
2023-03-07T04:33:13.554Z,2.95
2023-03-07T04:35:40.064Z,2.94
2023-03-07T04:38:07.122Z,2.91
2023-03-07T04:40:34.738Z,2.96
2023-03-07T04:43:01.558Z,2.93
2023-03-07T04:45:27.989Z,2.93
2023-03-07T04:47:54.445Z,2.80
2023-03-07T04:50:21.138Z,2.65
2023-03-07T04:52:47.602Z,2.74
2023-03-07T04:55:14.946Z,2.66
2023-03-07T04:57:41.500Z,2.67
2023-03-07T05:00:10.021Z,2.64
2023-03-07T05:02:37.519Z,2.67
2023-03-07T05:05:05.829Z,2.40
2023-03-07T05:07:32.428Z,2.63
2023-03-07T05:09:58.884Z,2.69
2023-03-07T05:12:25.561Z,2.57
2023-03-07T05:14:51.971Z,2.70
2023-03-07T05:17:19.504Z,2.65
2023-03-07T05:19:46.129Z,2.59
2023-03-07T05:22:12.599Z,2.66
2023-03-07T05:24:38.996Z,2.50
2023-03-07T05:27:05.665Z,2.46
2023-03-07T05:29:32.174Z,2.72
2023-03-07T05:31:58.922Z,2.73
2023-03-07T05:34:25.578Z,1.58
2023-03-07T05:36:52.040Z,2.64
2023-03-07T05:39:18.418Z,2.73
2023-03-07T05:41:45.128Z,2.65
2023-03-07T05:44:11.555Z,2.73
2023-03-07T05:46:38.027Z,2.66
2023-03-07T05:49:04.459Z,2.66
2023-03-07T05:51:30.842Z,2.79
2023-03-07T05:53:57.253Z,2.64
2023-03-07T05:56:24.035Z,2.68
2023-03-07T05:58:50.454Z,2.61
2023-03-07T06:01:16.896Z,2.52
2023-03-07T06:03:44.842Z,2.34
2023-03-07T06:06:14.624Z,2.43
2023-03-07T06:08:41.070Z,2.26
2023-03-07T06:11:07.515Z,2.24
2023-03-07T06:13:36.840Z,2.06
2023-03-07T06:16:03.467Z,2.08
2023-03-07T06:18:29.949Z,1.99
2023-03-07T06:21:01.842Z,1.99
2023-03-07T06:23:30.943Z,2.03
2023-03-07T06:25:58.414Z,1.28
2023-03-07T06:28:24.945Z,1.75
2023-03-07T06:30:51.810Z,1.72
2023-03-07T06:33:18.335Z,1.65
2023-03-07T06:35:44.915Z,1.50
2023-03-07T06:38:13.384Z,1.37
2023-03-07T06:40:40.269Z,1.33
2023-03-07T06:43:06.835Z,1.33
2023-03-07T06:45:33.646Z,1.30
2023-03-07T06:48:00.048Z,1.25
2023-03-07T06:50:34.858Z,1.33
2023-03-07T06:53:02.254Z,1.33
2023-03-07T06:55:28.673Z,1.24
2023-03-07T06:57:55.116Z,1.19
2023-03-07T07:05:45.566Z,0.60
2023-03-07T07:21:34.488Z,0.71
2023-03-07T07:26:42.472Z,0.62
2023-03-07T07:34:25.795Z,0.71
2023-03-07T07:36:53.147Z,0.59
2023-03-07T07:42:34.514Z,1.27
2023-03-07T07:58:30.837Z,0.54
2023-03-07T10:40:59.413Z,1.96
2023-03-07T10:43:30.792Z,2.70
2023-03-07T10:46:25.235Z,2.90
2023-03-07T10:48:56.327Z,2.62
2023-03-07T10:51:51.131Z,3.31
2023-03-07T10:54:22.244Z,3.09
2023-03-07T10:57:16.542Z,2.99
2023-03-07T10:59:55.907Z,2.90
2023-03-07T11:02:30.395Z,2.99
2023-03-07T11:04:57.785Z,2.95
2023-03-07T11:07:34.383Z,3.03
2023-03-07T11:10:21.832Z,2.98
2023-03-07T11:12:48.622Z,2.31
2023-03-07T11:15:24.682Z,2.11
2023-03-07T11:17:52.539Z,2.43
2023-03-07T11:34:52.080Z,3.49
2023-03-07T11:37:44.256Z,3.67
2023-03-07T11:43:20.841Z,3.59
2023-03-07T11:45:53.498Z,3.70
2023-03-07T11:48:42.549Z,3.76
2023-03-07T11:51:24.903Z,3.42
2023-03-07T11:54:05.010Z,3.77
2023-03-07T11:56:41.023Z,3.45
2023-03-07T11:59:49.903Z,3.37
2023-03-07T12:02:50.314Z,3.44
2023-03-07T12:09:20.221Z,2.69
2023-03-07T12:11:47.020Z,3.45
2023-03-07T12:14:32.382Z,3.43
2023-03-07T12:17:13.116Z,3.36
2023-03-07T12:19:48.464Z,3.52
2023-03-07T12:22:24.279Z,3.52
2023-03-07T12:25:09.559Z,3.50
2023-03-07T12:27:45.492Z,3.50
2023-03-07T12:30:17.329Z,3.48
2023-03-07T12:32:44.347Z,3.55
2023-03-07T12:35:21.621Z,3.32
2023-03-07T12:38:01.581Z,3.92
2023-03-07T12:41:13.465Z,4.87
2023-03-07T12:43:47.536Z,4.41
2023-03-07T12:46:37.920Z,4.53
2023-03-07T12:49:18.922Z,5.17
2023-03-07T12:51:59.747Z,5.27
2023-03-07T12:54:34.040Z,5.30
2023-03-07T12:57:19.082Z,5.40
2023-03-07T12:59:45.699Z,4.99
2023-03-07T13:02:27.125Z,4.95
2023-03-07T13:08:52.791Z,5.19
2023-03-07T13:16:06.535Z,4.43
2023-03-07T13:26:49.433Z,3.50
2023-03-07T13:29:35.004Z,2.86
2023-03-07T13:32:01.963Z,2.33
2023-03-07T13:34:47.866Z,1.23
2023-03-07T13:38:03.978Z,1.24
2023-03-07T13:40:33.496Z,1.07
2023-03-07T13:43:00.584Z,0.80
2023-03-07T13:45:59.357Z,0.90
2023-03-07T13:48:44.204Z,0.73
2023-03-07T13:51:10.750Z,0.93
2023-03-07T13:53:50.655Z,0.80
2023-03-07T13:56:17.382Z,1.07
2023-03-07T13:58:52.446Z,1.01
2023-03-07T14:01:24.836Z,0.85
2023-03-07T14:03:55.930Z,0.95
2023-03-07T14:06:37.461Z,0.94
2023-03-07T14:09:06.357Z,0.82
2023-03-07T14:11:59.448Z,0.87
2023-03-07T14:14:31.873Z,0.95
2023-03-07T14:17:05.402Z,0.57
2023-03-07T15:00:05.661Z,1.57
2023-03-07T15:02:32.213Z,1.31
2023-03-07T15:04:59.105Z,1.56
2023-03-07T15:07:25.653Z,1.34
2023-03-07T15:10:07.989Z,1.52
2023-03-07T15:12:38.200Z,1.80
2023-03-07T15:15:07.001Z,1.43
2023-03-07T15:17:44.021Z,1.76
2023-03-07T17:02:48.299Z,-0.61
2023-03-07T17:05:17.921Z,0.28
2023-03-07T17:27:11.467Z,-0.67
2023-03-07T17:54:36.849Z,-0.44
2023-03-07T17:57:16.259Z,-0.80
2023-03-07T18:09:51.501Z,-0.86
2023-03-07T18:12:33.345Z,-0.52
2023-03-07T18:15:13.546Z,-0.90
2023-03-07T18:17:56.563Z,-0.91
2023-03-07T18:20:37.028Z,-0.55
2023-03-07T18:23:04.920Z,-0.61
2023-03-07T18:25:31.385Z,0.02
2023-03-07T18:28:01.336Z,-0.15
2023-03-07T18:30:33.892Z,-1.17
2023-03-07T18:33:00.583Z,-0.98
2023-03-07T18:35:27.202Z,-0.80
2023-03-07T18:37:55.660Z,0.06
2023-03-07T19:16:44.710Z,-0.90
2023-03-07T19:55:34.890Z,-0.62
2023-03-07T19:58:17.458Z,-0.01
2023-03-07T20:04:32.567Z,-0.58
2023-03-07T20:11:16.158Z,-1.10
2023-03-07T20:13:37.486Z,-0.16
2023-03-07T20:16:41.372Z,-0.81
2023-03-07T20:19:23.625Z,-0.59
2023-03-07T20:21:54.186Z,-0.59
2023-03-07T20:27:34.474Z,0.07
2023-03-07T20:30:18.549Z,-0.64
2023-03-07T20:36:12.581Z,0.06
2023-03-07T20:38:56.185Z,0.09
2023-03-07T20:41:31.564Z,-0.90
2023-03-07T20:44:15.443Z,0.06
2023-03-07T20:46:43.667Z,-0.56
2023-03-07T20:49:13.765Z,-0.72
2023-03-07T20:51:42.642Z,-0.32
2023-03-07T20:54:31.879Z,-0.82
2023-03-07T20:57:00.731Z,-0.69
2023-03-07T20:59:30.834Z,-0.90
2023-03-07T21:01:57.655Z,-0.80
2023-03-07T21:04:24.376Z,-0.30
2023-03-07T21:06:54.167Z,-0.94
2023-03-07T21:09:20.763Z,-0.16
2023-03-07T21:11:49.870Z,-0.10
2023-03-07T21:14:21.704Z,-0.15
2023-03-07T21:16:48.323Z,-0.31
2023-03-07T21:19:14.842Z,-0.56
2023-03-07T21:21:41.913Z,-0.42
2023-03-07T21:24:08.876Z,-0.39
2023-03-07T21:26:36.409Z,-0.28
2023-03-07T21:29:03.878Z,-0.21
2023-03-07T21:31:33.395Z,-0.27
2023-03-07T21:34:03.418Z,-0.17
2023-03-07T21:36:36.138Z,-0.31
2023-03-07T21:39:05.658Z,-0.39
2023-03-07T21:41:32.556Z,-0.55
2023-03-07T21:43:59.448Z,-0.61
2023-03-07T21:46:26.882Z,-0.33
2023-03-07T21:48:53.957Z,-0.72
2023-03-07T21:51:21.784Z,-0.54
2023-03-07T21:53:48.701Z,-0.57
2023-03-07T21:56:17.338Z,-0.17
2023-03-07T21:58:48.676Z,-0.88
2023-03-07T22:01:20.059Z,-0.24
2023-03-07T22:03:49.774Z,-0.73
2023-03-07T22:06:17.145Z,-0.31
2023-03-07T22:08:44.160Z,-0.98
2023-03-07T22:11:12.452Z,-1.26
2023-03-07T22:13:40.476Z,-0.98
2023-03-07T22:16:11.624Z,-0.43
2023-03-07T22:18:38.752Z,-0.48
2023-03-07T22:21:10.161Z,-0.35
2023-03-07T22:23:37.274Z,-0.27
2023-03-07T22:26:07.830Z,-0.46
2023-03-07T22:28:35.353Z,-0.30
2023-03-07T22:31:07.375Z,-0.29
2023-03-07T22:33:34.280Z,-0.23
2023-03-07T22:36:04.260Z,-0.36
2023-03-07T22:38:31.956Z,-0.73
2023-03-07T22:41:07.404Z,-0.28
2023-03-07T22:43:35.804Z,-0.06
2023-03-07T22:46:02.968Z,-0.12
2023-03-07T22:48:30.798Z,-0.21
2023-03-07T22:50:58.126Z,-0.36
2023-03-07T22:53:28.283Z,-0.05
2023-03-07T22:55:54.920Z,-0.09
2023-03-07T22:58:21.352Z,-0.27
2023-03-07T23:00:47.913Z,-0.19
2023-03-07T23:03:14.386Z,-0.22
2023-03-07T23:05:40.922Z,-0.38
2023-03-07T23:08:07.619Z,-0.50
2023-03-07T23:10:34.107Z,-0.14
2023-03-07T23:13:00.605Z,-0.28
2023-03-07T23:15:27.670Z,-0.45
2023-03-07T23:17:54.680Z,-0.53
2023-03-07T23:20:25.427Z,-0.56
2023-03-07T23:22:55.184Z,-0.50
2023-03-07T23:25:21.733Z,-0.44
2023-03-07T23:27:48.309Z,-0.39
2023-03-07T23:30:17.360Z,-0.54
2023-03-07T23:32:43.956Z,-1.28
2023-03-07T23:35:18.049Z,-1.11
2023-03-07T23:37:44.890Z,-1.26
2023-03-07T23:40:12.281Z,-0.87
2023-03-07T23:42:38.918Z,-0.94
2023-03-07T23:45:06.344Z,-1.19
2023-03-07T23:47:34.504Z,-1.18
2023-03-07T23:50:00.993Z,-1.34
2023-03-07T23:52:27.622Z,-1.21
2023-03-07T23:54:54.137Z,-1.62
2023-03-07T23:57:20.662Z,-1.34
2023-03-07T23:59:48.082Z,-1.54
